Time;durP1;ratioP1;P1;durP2;ratioP2;P2;SDS_P1;SDS_P2;PMS_P1;PMS_P2;Temp;Humidity;BMP_temperature;BMP_pressure;BME280_temperature;BME280_humidity;BME280_pressure;Samples;Min_cycle;Max_cycle;Signal;HPM_P1;HPM_P2
2021/04/29 00:00:09;;;;;;;8.77;6.28;;;11.30;87.70;;;;;;4986005;28;20050;-77
2021/04/29 00:02:39;;;;;;;8.90;6.85;;;11.30;85.90;;;;;;5002589;28;20038;-77
2021/04/29 00:05:09;;;;;;;61.35;13.93;;;11.30;86.30;;;;;;5003503;28;20058;-75
2021/04/29 00:07:37;;;;;;;12.02;7.35;;;11.20;85.10;;;;;;5004419;28;20045;-79
2021/04/29 00:10:08;;;;;;;10.95;7.90;;;11.20;85.60;;;;;;5003429;28;20253;-77
2021/04/29 00:12:35;;;;;;;12.40;8.95;;;11.10;86.40;;;;;;4967728;28;20514;-76
2021/04/29 00:15:09;;;;;;;11.18;8.57;;;11.20;85.40;;;;;;5002225;28;20046;-78
2021/04/29 00:17:37;;;;;;;12.10;7.28;;;11.10;86.00;;;;;;5006061;28;20058;-77
2021/04/29 00:20:08;;;;;;;15.68;8.13;;;11.10;85.80;;;;;;5022745;28;20042;-77
2021/04/29 00:22:35;;;;;;;15.40;10.73;;;11.10;87.10;;;;;;5023466;28;20049;-76
2021/04/29 00:25:05;;;;;;;15.85;9.52;;;11.00;87.50;;;;;;5005585;28;20057;-77
2021/04/29 00:27:50;;;;;;;10.52;8.63;;;11.00;88.10;;;;;;5022892;28;20038;-77
2021/04/29 00:30:18;;;;;;;10.32;9.27;;;10.90;88.80;;;;;;5021139;28;20049;-77
2021/04/29 00:32:45;;;;;;;11.43;8.38;;;10.90;89.10;;;;;;5021967;28;20057;-77
2021/04/29 00:35:13;;;;;;;11.60;8.18;;;10.90;90.00;;;;;;5022478;28;20418;-76
2021/04/29 00:37:40;;;;;;;16.30;9.60;;;11.00;89.90;;;;;;5023817;28;20395;-76
2021/04/29 00:40:09;;;;;;;9.95;7.97;;;11.00;90.30;;;;;;5021997;28;20053;-77
2021/04/29 00:42:41;;;;;;;9.93;8.95;;;11.10;90.60;;;;;;5004033;28;20042;-78
2021/04/29 00:45:11;;;;;;;16.60;10.52;;;11.10;91.00;;;;;;5022140;28;20475;-76
2021/04/29 00:47:40;;;;;;;13.65;9.02;;;11.10;91.00;;;;;;5002554;28;20046;-78
2021/04/29 00:50:11;;;;;;;12.13;8.25;;;11.10;91.40;;;;;;5021170;28;20067;-77
2021/04/29 00:52:39;;;;;;;;;;;11.00;91.70;;;;;;5020924;28;20048;-77
2021/04/29 00:55:07;;;;;;;10.48;8.00;;;11.00;91.70;;;;;;5022790;28;20287;-77
2021/04/29 00:57:35;;;;;;;11.13;9.30;;;11.00;92.30;;;;;;5023341;28;20063;-76
2021/04/29 01:00:06;;;;;;;9.95;7.97;;;11.10;92.00;;;;;;5020758;28;20049;-77
2021/04/29 01:02:35;;;;;;;;;;;11.10;92.30;;;;;;5020222;28;20056;-77
2021/04/29 01:05:13;;;;;;;14.43;8.50;;;11.00;92.50;;;;;;5005104;28;19928;-77
2021/04/29 01:07:44;;;;;;;9.93;8.05;;;11.00;92.60;;;;;;5021106;28;20038;-78
2021/04/29 01:10:14;;;;;;;9.25;7.07;;;11.10;92.90;;;;;;5003559;28;20054;-78
2021/04/29 01:12:53;;;;;;;10.43;8.20;;;11.10;92.90;;;;;;5021884;28;20050;-80
2021/04/29 01:15:20;;;;;;;8.07;7.28;;;11.10;93.20;;;;;;5002966;28;20057;-77
2021/04/29 01:17:48;;;;;;;13.88;6.63;;;11.10;93.20;;;;;;5021464;28;20043;-77
2021/04/29 01:20:22;;;;;;;13.90;6.88;;;11.20;93.10;;;;;;5021863;28;20049;-77
2021/04/29 01:23:11;;;;;;;9.80;6.72;;;11.20;93.10;;;;;;5022055;28;20041;-78
2021/04/29 01:25:40;;;;;;;9.93;8.35;;;11.30;93.20;;;;;;5023894;28;20570;-78
2021/04/29 01:28:13;;;;;;;10.48;7.18;;;11.20;93.30;;;;;;5024937;28;20053;-77
2021/04/29 01:30:41;;;;;;;6.25;5.60;;;11.30;93.20;;;;;;4988891;28;20061;-78
2021/04/29 01:33:09;;;;;;;6.53;5.57;;;11.30;93.30;;;;;;5021288;28;20041;-78
2021/04/29 01:35:37;;;;;;;22.10;8.60;;;11.30;93.40;;;;;;5020171;28;20053;-78
2021/04/29 01:38:05;;;;;;;7.38;6.63;;;11.30;93.60;;;;;;5004357;28;20693;-78
2021/04/29 01:40:32;;;;;;;7.28;5.32;;;11.20;93.80;;;;;;5021592;28;20045;-78
2021/04/29 01:43:00;;;;;;;5.95;5.35;;;11.20;94.20;;;;;;5022423;28;20049;-78
2021/04/29 01:45:28;;;;;;;6.65;5.38;;;11.10;94.30;;;;;;5021837;28;20422;-78
2021/04/29 01:47:56;;;;;;;8.25;5.07;;;11.20;94.30;;;;;;5018963;28;20045;-77
2021/04/29 01:50:24;;;;;;;6.45;5.22;;;11.20;94.30;;;;;;4987121;28;20046;-78
2021/04/29 01:52:52;;;;;;;6.43;5.80;;;11.20;94.40;;;;;;4988534;28;20050;-78
2021/04/29 01:55:21;;;;;;;6.22;5.30;;;11.20;94.60;;;;;;5022309;28;20041;-78
2021/04/29 01:57:49;;;;;;;7.03;5.97;;;11.20;94.50;;;;;;5022599;28;20057;-77
2021/04/29 02:00:17;;;;;;;11.50;7.13;;;11.20;94.50;;;;;;5020810;28;20406;-76
2021/04/29 02:02:44;;;;;;;5.15;4.65;;;11.30;94.40;;;;;;5020700;28;20058;-78
2021/04/29 02:05:12;;;;;;;5.65;5.15;;;11.30;94.60;;;;;;5022222;28;20045;-77
2021/04/29 02:07:39;;;;;;;6.68;4.78;;;11.30;94.40;;;;;;5019749;28;20533;-78
2021/04/29 02:10:07;;;;;;;7.20;5.25;;;11.30;94.50;;;;;;5020980;28;20061;-78
2021/04/29 02:12:41;;;;;;;11.13;5.70;;;11.30;94.60;;;;;;5024119;28;20045;-76
2021/04/29 02:15:11;;;;;;;9.90;5.10;;;11.30;94.40;;;;;;5019870;28;20137;-78
2021/04/29 02:17:46;;;;;;;;;;;11.40;94.30;;;;;;5020514;28;20052;-78
2021/04/29 02:20:15;;;;;;;6.03;5.47;;;11.30;94.60;;;;;;5018710;28;19929;-79
2021/04/29 02:22:45;;;;;;;14.93;6.80;;;11.30;94.50;;;;;;5021257;28;20045;-79
2021/04/29 02:25:20;;;;;;;5.93;4.50;;;11.30;94.50;;;;;;5021934;28;20053;-79
2021/04/29 02:27:47;;;;;;;4.78;4.45;;;11.20;94.90;;;;;;5021827;28;20049;-78
2021/04/29 02:30:16;;;;;;;8.45;5.30;;;11.20;94.70;;;;;;5019377;28;20491;-79
2021/04/29 02:32:44;;;;;;;11.35;5.78;;;11.20;94.90;;;;;;5021314;28;20046;-80
2021/04/29 02:35:16;;;;;;;6.85;5.93;;;11.10;95.10;;;;;;5005232;28;20042;-80
2021/04/29 02:37:47;;;;;;;6.82;6.13;;;11.10;94.90;;;;;;5020574;28;20411;-80
2021/04/29 02:40:16;;;;;;;5.85;5.25;;;11.20;94.80;;;;;;5018103;28;20495;-80
2021/04/29 02:43:05;;;;;;;7.43;6.00;;;11.20;94.70;;;;;;5021264;28;20402;-80
2021/04/29 02:45:33;;;;;;;8.65;5.13;;;11.20;94.70;;;;;;5003865;28;20506;-80
2021/04/29 02:48:08;;;;;;;5.85;5.15;;;11.20;95.10;;;;;;5003443;28;20038;-80
2021/04/29 02:50:36;;;;;;;5.80;5.30;;;11.10;95.40;;;;;;5003626;28;20041;-80
2021/04/29 02:53:04;;;;;;;7.50;5.43;;;11.00;95.50;;;;;;5020266;28;20045;-80
2021/04/29 02:55:31;;;;;;;5.00;4.57;;;11.00;95.40;;;;;;5020017;28;20072;-80
2021/04/29 02:58:01;;;;;;;5.63;5.10;;;10.90;95.50;;;;;;5004588;28;20399;-79
2021/04/29 03:00:29;;;;;;;4.80;3.95;;;10.90;95.50;;;;;;5019016;28;20044;-80
2021/04/29 03:02:57;;;;;;;4.90;4.35;;;11.00;95.40;;;;;;5002419;28;20045;-79
2021/04/29 03:05:24;;;;;;;4.25;3.95;;;10.90;95.20;;;;;;4987801;28;20057;-80
2021/04/29 03:07:53;;;;;;;9.02;5.93;;;11.00;95.10;;;;;;5019095;28;20120;-80
2021/04/29 03:10:21;;;;;;;5.53;4.80;;;11.00;95.10;;;;;;5017616;28;20604;-80
2021/04/29 03:12:48;;;;;;;6.00;3.72;;;11.00;95.00;;;;;;5021067;28;20054;-80
2021/04/29 03:15:18;;;;;;;5.15;3.60;;;11.20;94.80;;;;;;5017094;28;20396;-80
2021/04/29 03:17:57;;;;;;;;;;;11.20;94.70;;;;;;5019576;28;20046;-80
2021/04/29 03:20:41;;;;;;;4.88;4.38;;;11.10;94.90;;;;;;5030360;28;19928;-80
2021/04/29 03:23:14;;;;;;;7.13;3.85;;;11.00;95.30;;;;;;5018666;28;20042;-80
2021/04/29 03:25:41;;;;;;;4.70;4.28;;;10.90;95.40;;;;;;5019027;28;20574;-80
2021/04/29 03:28:09;;;;;;;9.98;4.07;;;10.90;95.50;;;;;;5021473;28;20057;-80
2021/04/29 03:30:36;;;;;;;7.95;4.53;;;10.80;95.60;;;;;;5000538;28;20046;-80
2021/04/29 03:33:05;;;;;;;5.05;4.53;;;10.80;95.50;;;;;;5004876;28;20050;-80
2021/04/29 03:35:33;;;;;;;6.72;4.82;;;10.80;95.50;;;;;;5019989;28;20045;-80
2021/04/29 03:38:06;;;;;;;8.85;5.43;;;10.80;95.70;;;;;;5002604;28;20042;-79
2021/04/29 03:40:34;;;;;;;6.43;5.05;;;10.80;95.60;;;;;;5000600;28;20069;-80
2021/04/29 03:43:03;;;;;;;6.97;4.63;;;10.80;95.60;;;;;;5001547;28;20054;-80
2021/04/29 03:45:31;;;;;;;12.30;5.00;;;10.70;95.60;;;;;;5001189;28;20384;-80
2021/04/29 03:47:59;;;;;;;4.90;4.50;;;10.70;95.70;;;;;;4986607;28;20041;-80
2021/04/29 03:50:27;;;;;;;5.22;4.72;;;10.70;95.60;;;;;;5002169;28;20490;-86
2021/04/29 03:52:55;;;;;;;8.18;5.30;;;10.60;95.50;;;;;;4986930;28;20060;-80
2021/04/29 03:55:22;;;;;;;6.15;5.55;;;10.60;95.80;;;;;;5001558;28;20046;-80
2021/04/29 03:57:50;;;;;;;6.38;4.85;;;10.60;95.90;;;;;;5020111;28;20080;-80
2021/04/29 04:00:17;;;;;;;5.28;4.88;;;10.50;95.90;;;;;;5017781;28;20515;-80
2021/04/29 04:02:45;;;;;;;10.07;5.30;;;10.50;96.00;;;;;;5019568;28;20048;-80
2021/04/29 04:05:13;;;;;;;5.68;4.32;;;10.50;96.00;;;;;;5019790;28;20064;-80
2021/04/29 04:07:42;;;;;;;8.75;4.68;;;10.50;95.90;;;;;;5033021;28;20056;-80
2021/04/29 04:10:11;;;;;;;5.30;4.80;;;10.40;96.20;;;;;;5018872;28;20050;-80
2021/04/29 04:12:39;;;;;;;4.28;3.75;;;10.40;96.30;;;;;;5023199;28;20053;-80
2021/04/29 04:15:07;;;;;;;6.45;4.40;;;10.40;96.30;;;;;;5019026;28;20053;-79
2021/04/29 04:17:35;;;;;;;4.93;4.03;;;10.40;96.40;;;;;;5020474;28;20068;-79
2021/04/29 04:20:20;;;;;;;4.68;4.15;;;10.60;96.10;;;;;;5018538;28;20053;-80
2021/04/29 04:22:49;;;;;;;3.83;3.53;;;10.60;96.20;;;;;;5004148;28;20038;-80
2021/04/29 04:25:17;;;;;;;5.30;3.90;;;10.60;95.90;;;;;;5006265;28;20049;-79
2021/04/29 04:27:44;;;;;;;4.72;3.42;;;10.50;96.00;;;;;;5024525;28;20053;-80
2021/04/29 04:30:12;;;;;;;4.10;3.70;;;10.60;96.10;;;;;;5006069;28;20061;-80
2021/04/29 04:32:40;;;;;;;5.45;4.05;;;10.60;96.10;;;;;;5021994;28;20065;-80
2021/04/29 04:35:08;;;;;;;8.23;4.20;;;10.80;95.70;;;;;;5006620;28;20045;-80
2021/04/29 04:37:35;;;;;;;4.13;3.53;;;10.80;95.50;;;;;;5004501;28;20399;-79
2021/04/29 04:40:04;;;;;;;5.18;4.25;;;10.90;95.50;;;;;;5023098;28;20049;-80
2021/04/29 04:42:31;;;;;;;4.72;4.13;;;10.90;95.50;;;;;;5005364;28;20065;-80
2021/04/29 04:44:59;;;;;;;9.23;3.95;;;10.90;95.40;;;;;;5023648;28;20049;-79
2021/04/29 04:47:26;;;;;;;4.50;3.88;;;10.90;95.70;;;;;;5020955;28;20542;-81
2021/04/29 04:49:54;;;;;;;5.57;3.97;;;11.00;95.70;;;;;;5021521;28;20384;-79
2021/04/29 04:52:22;;;;;;;3.60;3.22;;;11.00;95.30;;;;;;5005776;28;20399;-79
2021/04/29 04:54:51;;;;;;;4.75;3.20;;;11.10;95.00;;;;;;5022505;28;20041;-79
2021/04/29 04:57:20;;;;;;;7.80;4.10;;;11.20;94.80;;;;;;5023652;28;20054;-78
2021/04/29 04:59:47;;;;;;;3.97;3.63;;;11.20;94.90;;;;;;5024086;28;20048;-79
2021/04/29 05:02:15;;;;;;;3.30;3.00;;;11.10;94.90;;;;;;5022511;28;20053;-80
2021/04/29 05:04:42;;;;;;;3.80;3.13;;;11.20;95.10;;;;;;5022814;28;20651;-79
2021/04/29 05:07:10;;;;;;;4.47;3.00;;;11.10;95.10;;;;;;5021754;28;20061;-79
2021/04/29 05:09:39;;;;;;;4.15;3.67;;;11.10;94.90;;;;;;5021486;28;20479;-80
2021/04/29 05:12:07;;;;;;;3.78;3.40;;;11.10;95.10;;;;;;5020791;28;20045;-78
2021/04/29 05:14:35;;;;;;;4.90;3.65;;;11.00;95.00;;;;;;5022974;28;20044;-78
2021/04/29 05:17:02;;;;;;;3.90;3.47;;;11.10;94.90;;;;;;5020269;28;20042;-78
2021/04/29 05:19:30;;;;;;;4.93;3.53;;;11.10;95.10;;;;;;5021638;28;20046;-80
2021/04/29 05:21:58;;;;;;;5.60;3.42;;;11.10;95.00;;;;;;5020469;28;20057;-81
2021/04/29 05:24:25;;;;;;;8.35;3.30;;;11.00;95.10;;;;;;5022034;28;20057;-81
2021/04/29 05:26:53;;;;;;;5.20;3.50;;;11.00;95.40;;;;;;5021137;28;20049;-81
2021/04/29 05:29:20;;;;;;;3.35;3.03;;;11.30;95.00;;;;;;5023089;28;20053;-82
2021/04/29 05:31:48;;;;;;;3.83;3.53;;;11.50;94.60;;;;;;5019050;28;20049;-80
2021/04/29 05:34:15;;;;;;;5.20;3.70;;;11.40;94.80;;;;;;5021995;28;20053;-80
2021/04/29 05:36:44;;;;;;;17.05;3.20;;;11.70;94.50;;;;;;5021902;28;20041;-80
2021/04/29 05:39:14;;;;;;;9.85;2.63;;;12.00;93.40;;;;;;5022361;28;20042;-80
2021/04/29 05:41:41;;;;;;;5.15;2.60;;;12.20;93.30;;;;;;5020600;28;20568;-80
2021/04/29 05:44:08;;;;;;;4.28;2.90;;;12.40;92.70;;;;;;5021721;28;20060;-79
2021/04/29 05:46:37;;;;;;;5.10;2.38;;;12.40;93.30;;;;;;5022176;28;20108;-79
2021/04/29 05:49:04;;;;;;;3.78;2.75;;;12.40;92.90;;;;;;5021028;28;20053;-79
2021/04/29 05:51:31;;;;;;;15.50;3.38;;;12.50;92.40;;;;;;5019883;28;20405;-80
2021/04/29 05:53:59;;;;;;;18.70;4.18;;;12.40;92.50;;;;;;5024321;28;20053;-80
2021/04/29 05:56:26;;;;;;;18.52;2.78;;;12.50;92.20;;;;;;5012718;28;20053;-80
2021/04/29 05:58:54;;;;;;;7.85;1.88;;;12.40;92.20;;;;;;5012608;28;20402;-80
2021/04/29 06:01:21;;;;;;;4.70;2.05;;;12.40;92.80;;;;;;5016387;28;20446;-82
2021/04/29 06:03:49;;;;;;;2.17;1.55;;;12.50;92.10;;;;;;5029174;28;20489;-74
2021/04/29 06:06:17;;;;;;;4.15;1.90;;;13.10;91.20;;;;;;5029605;28;20050;-75
2021/04/29 06:08:45;;;;;;;2.08;1.98;;;13.30;90.50;;;;;;5031047;28;20124;-83
2021/04/29 06:11:14;;;;;;;1.70;1.50;;;13.10;90.60;;;;;;4996361;28;20037;-83
2021/04/29 06:13:46;;;;;;;2.50;2.20;;;12.90;91.00;;;;;;5012151;28;20053;-82
2021/04/29 06:16:14;;;;;;;2.22;1.30;;;12.90;91.00;;;;;;5030325;28;20052;-83
2021/04/29 06:18:47;;;;;;;3.88;1.27;;;12.80;90.50;;;;;;5018322;28;20045;-89
2021/04/29 06:21:20;;;;;;;1.77;1.20;;;12.80;90.00;;;;;;5014224;28;20056;-86
2021/04/29 06:23:51;;;;;;;5.30;1.48;;;12.70;89.60;;;;;;5008950;28;20053;-84
2021/04/29 06:26:19;;;;;;;;;;;12.80;89.10;;;;;;4993206;28;20065;-78
2021/04/29 06:28:47;;;;;;;1.85;1.10;;;12.80;89.50;;;;;;5015655;28;19924;-79
2021/04/29 06:31:15;;;;;;;3.22;1.38;;;12.80;90.70;;;;;;5002684;28;20046;-80
2021/04/29 06:33:43;;;;;;;2.88;1.52;;;12.80;90.00;;;;;;5010915;28;20073;-77
2021/04/29 06:36:10;;;;;;;1.92;1.83;;;12.80;90.10;;;;;;5024881;28;20461;-77
2021/04/29 06:38:38;;;;;;;4.68;0.90;;;12.70;89.00;;;;;;5027821;28;20037;-79
2021/04/29 06:41:06;;;;;;;2.15;1.27;;;12.60;90.30;;;;;;5013224;28;20112;-79
2021/04/29 06:43:37;;;;;;;1.05;1.00;;;12.60;89.00;;;;;;5029663;28;20053;-79
2021/04/29 06:46:06;;;;;;;1.98;1.65;;;12.60;89.20;;;;;;5012509;28;20540;-78
2021/04/29 06:48:33;;;;;;;16.58;1.85;;;12.60;88.70;;;;;;5029957;28;20498;-77
2021/04/29 06:51:02;;;;;;;3.60;1.17;;;12.60;88.10;;;;;;5030541;28;20045;-79
2021/04/29 06:53:32;;;;;;;1.20;0.88;;;12.70;88.50;;;;;;5013361;28;20049;-80
2021/04/29 06:55:59;;;;;;;1.63;1.38;;;12.80;88.30;;;;;;4992998;28;20064;-79
2021/04/29 06:58:27;;;;;;;3.00;1.17;;;12.90;87.80;;;;;;4992712;28;20061;-80
2021/04/29 07:00:55;;;;;;;2.70;0.82;;;13.10;89.90;;;;;;4992770;28;20046;-78
2021/04/29 07:03:24;;;;;;;3.60;1.08;;;13.10;88.50;;;;;;4992932;28;20077;-78
2021/04/29 07:05:55;;;;;;;5.22;1.58;;;13.10;85.60;;;;;;5026018;28;20050;-79
2021/04/29 07:08:26;;;;;;;6.93;1.13;;;13.10;87.20;;;;;;5030193;28;20037;-79
2021/04/29 07:10:53;;;;;;;2.17;1.33;;;13.10;85.80;;;;;;5029508;28;20430;-79
2021/04/29 07:13:22;;;;;;;4.30;1.20;;;13.10;85.20;;;;;;5019585;28;20065;-78
2021/04/29 07:15:49;;;;;;;5.03;1.33;;;13.10;85.70;;;;;;5029719;28;20054;-78
2021/04/29 07:18:19;;;;;;;4.65;1.23;;;13.00;84.10;;;;;;5029711;28;20061;-78
2021/04/29 07:20:48;;;;;;;3.77;1.40;;;12.90;84.30;;;;;;5027462;28;20053;-78
2021/04/29 07:23:15;;;;;;;17.10;2.25;;;12.80;84.30;;;;;;5019378;28;20288;-78
2021/04/29 07:25:43;;;;;;;1.23;1.02;;;12.70;84.30;;;;;;5003701;28;20483;-78
2021/04/29 07:28:12;;;;;;;4.50;1.55;;;12.70;84.60;;;;;;5028823;28;20038;-86
2021/04/29 07:30:42;;;;;;;8.55;1.83;;;12.70;85.80;;;;;;5010752;28;20037;-84
2021/04/29 07:33:13;;;;;;;4.97;1.88;;;12.60;86.00;;;;;;4996352;28;20049;-80
2021/04/29 07:35:42;;;;;;;1.55;1.35;;;12.50;85.70;;;;;;4975155;28;20399;-87
2021/04/29 07:38:11;;;;;;;9.05;5.15;;;12.40;84.60;;;;;;4976087;28;20056;-86
2021/04/29 07:40:51;;;;;;;2.97;1.55;;;12.40;86.40;;;;;;4987500;28;20049;-82
2021/04/29 07:43:18;;;;;;;8.65;1.98;;;12.30;87.80;;;;;;5000346;28;20541;-84
2021/04/29 07:45:46;;;;;;;1.50;1.40;;;12.20;87.70;;;;;;4979288;28;20048;-81
2021/04/29 07:48:18;;;;;;;2.58;1.58;;;12.10;87.10;;;;;;4994196;28;20340;-84
2021/04/29 07:50:46;;;;;;;3.22;1.52;;;12.10;89.30;;;;;;4994480;28;20068;-86
2021/04/29 07:53:31;;;;;;;;;;;;;;;;;;;;;
2021/04/29 07:56:22;;;;;;;3.25;1.27;;;12.00;90.00;;;;;;4999616;28;20049;-88
2021/04/29 07:58:55;;;;;;;2.60;1.50;;;12.00;89.50;;;;;;4972687;28;20041;-86
2021/04/29 08:01:23;;;;;;;5.80;1.50;;;11.90;89.60;;;;;;5023248;28;20052;-85
2021/04/29 08:03:50;;;;;;;3.58;2.05;;;11.90;89.10;;;;;;5050458;28;20045;-86
2021/04/29 08:06:17;;;;;;;2.65;1.98;;;11.90;90.00;;;;;;5041796;28;20053;-88
2021/04/29 08:08:45;;;;;;;3.78;1.60;;;11.80;90.20;;;;;;5051514;28;20490;-87
2021/04/29 08:11:15;;;;;;;10.90;2.35;;;11.80;89.60;;;;;;5016973;28;20048;-79
2021/04/29 08:13:43;;;;;;;4.03;1.92;;;11.80;88.20;;;;;;5033834;28;20061;-88
2021/04/29 08:16:10;;;;;;;3.00;1.65;;;11.60;90.30;;;;;;5014270;28;20049;-82
2021/04/29 08:18:38;;;;;;;2.33;2.08;;;11.70;89.90;;;;;;5014891;28;20041;-88
2021/04/29 08:21:09;;;;;;;3.10;2.25;;;11.60;89.90;;;;;;5007787;28;20050;-88
2021/04/29 08:23:37;;;;;;;1.52;1.42;;;11.70;90.00;;;;;;4983122;28;20498;-87
2021/04/29 08:26:05;;;;;;;3.25;1.95;;;11.60;89.20;;;;;;4983953;28;20053;-88
2021/04/29 08:28:36;;;;;;;3.30;1.80;;;11.60;89.00;;;;;;5015761;28;20053;-86
2021/04/29 08:31:03;;;;;;;3.85;1.73;;;11.60;89.60;;;;;;5032733;28;20487;-86
2021/04/29 08:33:31;;;;;;;8.95;2.55;;;11.60;90.50;;;;;;5016149;28;20050;-87
2021/04/29 08:36:00;;;;;;;7.55;2.00;;;11.60;90.70;;;;;;4996251;28;20054;-88
2021/04/29 08:38:27;;;;;;;3.03;2.25;;;11.60;89.10;;;;;;4963670;28;20049;-88
2021/04/29 08:40:55;;;;;;;5.13;2.20;;;11.60;88.40;;;;;;4984552;28;20045;-76
2021/04/29 08:43:23;;;;;;;2.42;2.15;;;11.70;90.30;;;;;;5032757;28;20046;-77
2021/04/29 08:45:51;;;;;;;3.22;2.47;;;11.70;90.30;;;;;;5032902;28;20128;-76
2021/04/29 08:48:24;;;;;;;10.00;3.42;;;11.70;88.00;;;;;;5030977;28;20048;-76
2021/04/29 08:50:53;;;;;;;5.38;2.47;;;11.70;86.70;;;;;;5030910;28;20037;-77
2021/04/29 08:53:21;;;;;;;5.55;2.45;;;11.70;87.40;;;;;;5031453;28;20058;-75
2021/04/29 08:55:49;;;;;;;4.18;3.25;;;11.70;86.60;;;;;;5015021;28;20064;-76
2021/04/29 08:58:19;;;;;;;3.00;2.17;;;11.80;87.10;;;;;;5017398;28;20065;-75
2021/04/29 09:01:01;;;;;;;4.10;1.85;;;11.80;86.50;;;;;;5012456;28;20053;-76
2021/04/29 09:03:32;;;;;;;3.67;2.05;;;11.90;87.00;;;;;;5012228;28;20498;-76
2021/04/29 09:06:01;;;;;;;5.85;2.55;;;11.80;89.00;;;;;;5028237;28;20053;-77
2021/04/29 09:08:36;;;;;;;3.00;2.10;;;11.80;86.80;;;;;;5031921;28;20038;-76
2021/04/29 09:11:15;;;;;;;5.32;2.25;;;11.80;86.80;;;;;;5032126;28;20045;-76
2021/04/29 09:14:05;;;;;;;4.35;2.45;;;11.90;87.20;;;;;;5032400;28;20049;-76
2021/04/29 09:16:37;;;;;;;2.15;2.05;;;11.90;84.60;;;;;;5002468;28;20056;-76
2021/04/29 09:19:16;;;;;;;6.65;2.60;;;12.00;84.20;;;;;;5019912;28;20038;-75
2021/04/29 09:21:44;;;;;;;3.65;2.92;;;12.00;84.80;;;;;;5032409;28;20482;-77
2021/04/29 09:24:13;;;;;;;15.30;4.13;;;12.10;84.30;;;;;;5031888;28;20049;-76
2021/04/29 09:26:42;;;;;;;2.75;2.50;;;12.20;84.00;;;;;;5031892;28;20048;-76
2021/04/29 09:29:15;;;;;;;4.43;3.72;;;12.40;84.20;;;;;;5032483;28;20053;-75
2021/04/29 09:31:45;;;;;;;7.07;3.70;;;12.50;79.50;;;;;;5031363;28;20041;-77
2021/04/29 09:34:17;;;;;;;5.18;2.72;;;12.60;80.40;;;;;;5011861;28;20543;-77
2021/04/29 09:36:46;;;;;;;5.53;3.67;;;12.70;79.60;;;;;;4973886;28;20053;-76
2021/04/29 09:39:18;;;;;;;4.07;2.65;;;12.80;79.40;;;;;;4992471;28;20046;-77
2021/04/29 09:41:51;;;;;;;3.47;2.92;;;12.90;80.80;;;;;;4992571;28;20061;-76
2021/04/29 09:44:20;;;;;;;4.65;2.80;;;13.10;80.60;;;;;;4992413;28;20408;-77
2021/04/29 09:47:00;;;;;;;11.38;3.58;;;13.20;77.80;;;;;;4991666;28;20527;-75
2021/04/29 09:49:38;;;;;;;10.30;4.00;;;13.10;80.40;;;;;;4983978;28;20051;-76
2021/04/29 09:52:24;;;;;;;15.38;3.65;;;13.10;80.40;;;;;;5002578;28;20045;-73
2021/04/29 09:54:55;;;;;;;3.75;2.70;;;13.20;81.20;;;;;;4994292;28;20057;-82
2021/04/29 09:57:26;;;;;;;4.45;3.10;;;13.10;78.90;;;;;;4960733;28;20046;-84
2021/04/29 09:59:57;;;;;;;3.67;3.00;;;13.00;82.00;;;;;;4976134;28;20046;-84
2021/04/29 10:02:29;;;;;;;3.63;3.30;;;12.80;81.80;;;;;;4992055;28;20049;-84
2021/04/29 10:04:59;;;;;;;2.85;2.63;;;12.70;79.50;;;;;;4977852;28;20054;-84
2021/04/29 10:07:30;;;;;;;2.67;2.47;;;12.80;83.40;;;;;;4982076;28;20383;-85
2021/04/29 10:09:58;;;;;;;4.43;3.40;;;12.90;79.40;;;;;;4961450;28;20415;-84
2021/04/29 10:12:29;;;;;;;5.05;3.25;;;13.00;82.90;;;;;;4974319;28;20409;-82
2021/04/29 10:15:03;;;;;;;5.07;2.65;;;13.10;79.70;;;;;;4976219;28;20034;-84
2021/04/29 10:17:36;;;;;;;11.55;4.90;;;13.00;75.60;;;;;;4991158;28;20053;-83
2021/04/29 10:20:14;;;;;;;8.45;3.08;;;13.00;77.80;;;;;;4983422;28;20042;-80
2021/04/29 10:22:49;;;;;;;3.35;2.90;;;13.10;79.20;;;;;;4993207;28;20038;-80
2021/04/29 10:25:34;;;;;;;17.48;7.10;;;13.20;81.40;;;;;;5001493;28;20406;-81
2021/04/29 10:28:09;;;;;;;6.00;4.03;;;13.20;79.70;;;;;;4980070;28;20043;-80
2021/04/29 10:30:47;;;;;;;4.32;3.65;;;13.20;78.10;;;;;;4989424;28;20380;-81
2021/04/29 10:33:23;;;;;;;5.50;3.65;;;13.10;78.80;;;;;;4958616;28;20073;-80
2021/04/29 10:35:58;;;;;;;4.20;3.80;;;13.20;78.50;;;;;;4953204;28;20038;-82
2021/04/29 10:38:36;;;;;;;4.97;3.03;;;13.20;76.80;;;;;;4974513;28;20049;-80
2021/04/29 10:41:23;;;;;;;7.88;4.07;;;13.20;74.60;;;;;;4979326;28;20410;-79
2021/04/29 10:43:54;;;;;;;4.88;3.33;;;13.20;75.60;;;;;;5009155;28;20052;-79
2021/04/29 10:46:25;;;;;;;6.00;3.88;;;13.40;77.80;;;;;;5010316;28;20064;-82
2021/04/29 10:48:53;;;;;;;4.25;3.50;;;13.40;74.10;;;;;;5011080;28;20065;-84
2021/04/29 10:51:32;;;;;;;4.85;2.95;;;13.40;76.50;;;;;;4999534;28;20057;-83
2021/04/29 10:54:22;;;;;;;7.95;3.53;;;13.60;75.00;;;;;;4975202;28;20498;-80
2021/04/29 10:57:06;;;;;;;3.53;2.75;;;13.90;75.70;;;;;;4960637;28;20038;-81
2021/04/29 10:59:44;;;;;;;6.20;2.95;;;14.30;76.40;;;;;;4992354;28;20053;-78
2021/04/29 11:02:34;;;;;;;4.18;3.78;;;14.10;74.90;;;;;;5009615;28;20065;-79
2021/04/29 11:05:07;;;;;;;8.43;3.65;;;14.00;76.90;;;;;;5009193;28;20841;-80
2021/04/29 11:07:45;;;;;;;6.32;3.10;;;14.20;69.70;;;;;;5006218;28;20038;-79
2021/04/29 11:10:20;;;;;;;4.95;3.40;;;14.10;70.50;;;;;;4978613;28;20502;-80
2021/04/29 11:12:51;;;;;;;11.23;3.72;;;14.10;71.00;;;;;;5010975;28;20053;-79
2021/04/29 11:15:26;;;;;;;3.47;3.13;;;13.90;70.20;;;;;;5010102;28;20049;-79
2021/04/29 11:18:09;;;;;;;6.28;4.07;;;14.00;69.80;;;;;;5010753;28;20407;-80
2021/04/29 11:20:51;;;;;;;3.65;3.30;;;14.20;70.50;;;;;;4971746;28;20496;-79
2021/04/29 11:23:27;;;;;;;3.88;3.50;;;14.50;70.60;;;;;;4960133;28;20042;-79
2021/04/29 11:26:19;;;;;;;10.13;3.15;;;14.70;71.10;;;;;;4973676;28;20476;-80
2021/04/29 11:28:56;;;;;;;4.80;3.53;;;14.90;74.10;;;;;;4967936;28;20058;-81
2021/04/29 11:31:24;;;;;;;3.60;3.25;;;14.80;68.90;;;;;;4969590;28;20060;-81
2021/04/29 11:33:52;;;;;;;8.05;3.20;;;14.80;71.30;;;;;;4955282;28;20047;-80
2021/04/29 11:36:26;;;;;;;5.40;3.70;;;14.80;66.90;;;;;;4972675;28;20054;-84
2021/04/29 11:38:56;;;;;;;5.40;4.55;;;14.60;71.40;;;;;;4936214;28;20043;-81
2021/04/29 11:41:26;;;;;;;3.77;2.93;;;14.50;66.50;;;;;;4969996;28;20043;-82
2021/04/29 11:43:57;;;;;;;4.75;2.67;;;14.40;71.30;;;;;;4978561;28;20847;-80
2021/04/29 11:46:25;;;;;;;3.63;3.17;;;14.40;72.20;;;;;;4972767;28;20408;-82
2021/04/29 11:48:59;;;;;;;3.58;2.75;;;14.60;71.90;;;;;;4973188;28;20054;-80
2021/04/29 11:51:29;;;;;;;6.35;4.03;;;14.60;70.50;;;;;;4990533;28;20054;-84
2021/04/29 11:54:04;;;;;;;6.88;2.80;;;14.30;65.20;;;;;;4937738;28;20038;-78
2021/04/29 11:56:40;;;;;;;2.88;2.65;;;14.60;68.60;;;;;;4953751;28;20491;-79
2021/04/29 11:59:09;;;;;;;3.15;2.88;;;14.90;65.80;;;;;;4944012;28;20045;-78
2021/04/29 12:01:37;;;;;;;10.50;3.38;;;15.10;64.70;;;;;;4970285;28;20043;-81
2021/04/29 12:04:18;;;;;;;8.13;3.47;;;15.10;67.20;;;;;;4934057;28;20045;-79
2021/04/29 12:06:50;;;;;;;10.45;3.10;;;15.30;65.70;;;;;;4954340;28;20038;-80
2021/04/29 12:09:22;;;;;;;7.35;3.15;;;15.30;67.50;;;;;;4952836;28;20117;-78
2021/04/29 12:12:13;;;;;;;3.25;2.72;;;15.40;65.20;;;;;;4953132;28;20058;-78
2021/04/29 12:14:50;;;;;;;6.55;3.17;;;15.10;67.90;;;;;;4953786;28;20047;-80
2021/04/29 12:17:18;;;;;;;6.22;4.22;;;15.20;68.70;;;;;;4981938;28;20065;-79
2021/04/29 12:19:49;;;;;;;9.98;4.15;;;15.20;69.40;;;;;;5005258;28;20483;-79
2021/04/29 12:22:24;;;;;;;5.22;4.78;;;15.00;65.60;;;;;;5010328;28;20042;-79
2021/04/29 12:24:52;;;;;;;4.78;2.92;;;14.60;68.10;;;;;;4992333;28;20050;-78
2021/04/29 12:27:22;;;;;;;4.75;4.00;;;14.70;68.20;;;;;;5009358;28;20045;-78
2021/04/29 12:30:04;;;;;;;6.20;3.67;;;14.90;65.50;;;;;;5004318;28;20050;-78
2021/04/29 12:32:43;;;;;;;14.52;5.93;;;14.80;69.00;;;;;;4972754;28;20514;-78
2021/04/29 12:35:26;;;;;;;5.47;3.90;;;14.40;67.90;;;;;;5022401;28;20042;-77
2021/04/29 12:37:56;;;;;;;7.28;3.63;;;14.30;72.10;;;;;;5009519;28;20498;-77
2021/04/29 12:40:30;;;;;;;8.50;4.07;;;14.30;70.80;;;;;;5009284;28;20046;-77
2021/04/29 12:43:17;;;;;;;6.45;3.38;;;14.50;68.80;;;;;;5010674;28;20034;-77
2021/04/29 12:45:52;;;;;;;4.15;3.63;;;14.60;69.70;;;;;;5013217;28;20522;-77
2021/04/29 12:48:32;;;;;;;6.05;4.93;;;14.80;70.10;;;;;;5011812;28;20064;-77
2021/04/29 12:51:12;;;;;;;6.90;4.30;;;15.00;70.60;;;;;;5013418;28;20486;-77
2021/04/29 12:54:00;;;;;;;9.55;4.85;;;14.80;70.50;;;;;;5013659;28;20049;-78
2021/04/29 12:56:33;;;;;;;10.23;5.00;;;14.50;67.90;;;;;;5012610;28;20428;-76
2021/04/29 12:59:11;;;;;;;5.83;4.30;;;14.50;69.30;;;;;;4995747;28;20502;-77
2021/04/29 13:01:40;;;;;;;7.53;4.47;;;14.50;68.70;;;;;;5032714;28;20056;-76
2021/04/29 13:04:19;;;;;;;5.97;4.45;;;14.60;70.80;;;;;;5031971;28;20042;-77
2021/04/29 13:06:49;;;;;;;8.82;5.55;;;14.70;67.30;;;;;;5022363;28;20049;-77